ADDS METAR Data INFO
IDs: Format: Raw Decoded Include TAF

Data at: 2332 UTC 18 Feb 2018

KPYX 182315Z AUTO 22028G33KT 10SM CLR 25/M01 A2958 RMK AO2 T02461013
KPYX 182255Z AUTO 21026G37KT 10SM CLR 25/00 A2958 RMK AO2 T02471001
KPYX 182235Z AUTO 22028G34KT 10SM CLR 25/00 A2957 RMK AO2 T02491003
KPYX 182215Z AUTO 21030G38KT 10SM CLR 25/00 A2957 RMK AO2 T02501005
KPYX 182155Z AUTO 21029G38KT 10SM CLR 25/M01 A2958 RMK AO2 T02511011
KPYX 182135Z AUTO 22026G35KT 10SM CLR 25/M02 A2958 RMK AO2 T02521017
KPYX 182115Z AUTO 22028G37KT 10SM CLR 25/M02 A2959 RMK AO2 T02481020
KPYX 182055Z AUTO 21031G36KT 10SM CLR 25/M02 A2961 RMK AO2 T02481016
KPYX 182035Z AUTO 22028G37KT 10SM CLR 24/M02 A2963 RMK AO2 T02431020
KPYX 182015Z AUTO 22025G37KT 10SM CLR 24/M01 A2963 RMK AO2 T02371010
KPYX 181955Z AUTO 21025G37KT 10SM CLR 23/00 A2964 RMK AO2 T02321002
KPYX 181935Z AUTO 21027G34KT 10SM CLR 23/00 A2966 RMK AO2 T02250000
KPYX 181915Z AUTO 21030G36KT 10SM CLR 22/01 A2968 RMK AO2 T02180005
KPYX 181855Z AUTO 21024G31KT 10SM CLR 21/02 A2970 RMK AO2 T02120015
KPYX 181835Z AUTO 22026G34KT 10SM CLR 20/02 A2972 RMK AO2 T02000015
KPYX 181815Z AUTO 22028G37KT 10SM CLR 19/01 A2973 RMK AO2 T01900011
KPYX 181755Z AUTO 21026G37KT 10SM CLR 18/02 A2975 RMK AO2 T01780017 10178 20061
KPYX 181735Z AUTO 22027G38KT 10SM CLR 16/02 A2976 RMK AO2 T01640022
KPYX 181715Z AUTO 21029G36KT 10SM CLR 16/03 A2977 RMK AO2 T01550027
KPYX 181655Z AUTO 20028G38KT 7SM CLR 14/03 A2978 RMK AO2 T01440026
KPYX 181635Z AUTO 20029G38KT 10SM CLR 14/03 A2980 RMK AO2 T01360030
KPYX 181615Z AUTO 20028G34KT 10SM CLR 12/03 A2982 RMK AO2 T01240025
KPYX 181555Z AUTO 20025G32KT 10SM CLR 11/01 A2983 RMK AO2 T01070014
KPYX 181535Z AUTO 20026G32KT 10SM CLR 10/00 A2984 RMK AO2 T00950004
KPYX 181515Z AUTO 21024G30KT 10SM CLR 09/00 A2986 RMK AO2 T00871001
KPYX 181455Z AUTO 20020G27KT 10SM CLR 08/M01 A2986 RMK AO2 T00801013
KPYX 181435Z AUTO 20020G25KT 10SM CLR 08/M02 A2986 RMK AO2 T00761019
KPYX 181415Z AUTO 20017G20KT 10SM CLR 07/M02 A2988 RMK AO2 T00701025
KPYX 181355Z AUTO 19015G21KT 10SM CLR 07/M03 A2988 RMK AO2 T00661028
KPYX 181335Z AUTO 19015G22KT 10SM CLR 07/M03 A2989 RMK AO2 T00681030
KPYX 181315Z AUTO 19017G24KT 10SM CLR 07/M03 A2989 RMK AO2 T00681031
KPYX 181255Z AUTO 19017G22KT 10SM CLR 07/M03 A2989 RMK AO2 T00661031
KPYX 181235Z AUTO 19019KT 10SM CLR 07/M03 A2990 RMK AO2 T00671030
KPYX 181215Z AUTO 19018G23KT 10SM CLR 06/M02 A2991 RMK AO2 T00611025
KPYX 181155Z AUTO 18017KT 10SM CLR 06/M02 A2992 RMK AO2 T00621025 10065 20035
KPYX 181135Z AUTO 19018G23KT 10SM CLR 06/M02 A2993 RMK AO2 T00631023
KPYX 181115Z AUTO 19018G22KT 10SM CLR 06/M02 A2994 RMK AO2 T00621024
KPYX 181055Z AUTO 19015G20KT 10SM CLR 06/M02 A2995 RMK AO2 T00561025
KPYX 181035Z AUTO 18012KT 10SM CLR 05/M03 A2995 RMK AO2 T00521026
KPYX 181015Z AUTO 19012KT 10SM CLR 05/M02 A2996 RMK AO2 T00501025
KPYX 180955Z AUTO 18012KT 10SM CLR 05/M03 A2997 RMK AO2 T00461027
KPYX 180935Z AUTO 18012G16KT 10SM CLR 05/M03 A2998 RMK AO2 T00451030
KPYX 180915Z AUTO 18011KT 10SM CLR 04/M03 A3000 RMK AO2 T00411033
KPYX 180855Z AUTO 18010KT 10SM CLR 05/M03 A3001 RMK AO2 T00461035
KPYX 180835Z AUTO 18011KT 10SM CLR 05/M04 A3002 RMK AO2 T00461040
KPYX 180815Z AUTO 19013KT 10SM CLR 05/M04 A3002 RMK AO2 T00471040
KPYX 180755Z AUTO 19013KT 10SM CLR 05/M04 A3003 RMK AO2 T00501043
KPYX 180735Z AUTO 19015KT 10SM CLR 06/M04 A3004 RMK AO2 T00561045
KPYX 180715Z AUTO 18011KT 10SM CLR 06/M05 A3004 RMK AO2 T00561048
KPYX 180655Z AUTO 19013KT 10SM CLR 06/M06 A3006 RMK AO2 T00571058
KPYX 180635Z AUTO 19013KT 10SM CLR 05/M06 A3006 RMK AO2 T00501065
KPYX 180615Z AUTO 19009KT 10SM CLR 04/M07 A3006 RMK AO2 T00361075
KPYX 180555Z AUTO 19008KT 10SM CLR 04/M08 A3007 RMK AO2 T00411080 10135 20020 401620020
KPYX 180535Z AUTO 19010KT 10SM CLR 05/M08 A3008 RMK AO2 T00471082
KPYX 180515Z AUTO 19009KT 10SM CLR 05/M09 A3009 RMK AO2 T00471091
KPYX 180455Z AUTO 20010KT 10SM CLR 04/M10 A3009 RMK AO2 T00351102
KPYX 180435Z AUTO 19009KT 10SM CLR 03/M12 A3010 RMK AO2 T00301116
KPYX 180415Z AUTO 19006KT 10SM CLR 03/M12 A3011 RMK AO2 T00341121
KPYX 180355Z AUTO 19009KT 10SM CLR 04/M12 A3011 RMK AO2 T00351121
KPYX 180335Z AUTO 17008KT 10SM CLR 04/M12 A3012 RMK AO2 T00361125
KPYX 180315Z AUTO 18008KT 10SM CLR 03/M13 A3012 RMK AO2 T00301134
KPYX 180255Z AUTO 17008KT 10SM CLR 02/M14 A3013 RMK AO2 T00221141
KPYX 180235Z AUTO 17008KT 10SM CLR 03/M15 A3013 RMK AO2 T00291147
KPYX 180215Z AUTO 15008KT 10SM CLR 03/M14 A3014 RMK AO2 T00251143
KPYX 180155Z AUTO 14008KT 10SM CLR 04/M14 A3014 RMK AO2 T00381138
KPYX 180135Z AUTO 13008KT 10SM CLR 07/M13 A3014 RMK AO2 T00731131
KPYX 180115Z AUTO 13007KT 10SM CLR 09/M13 A3014 RMK AO2 T00891127
KPYX 180055Z AUTO 13006KT 10SM CLR 09/M13 A3014 RMK AO2 T00871126
KPYX 180035Z AUTO 12006KT 10SM CLR 11/M12 A3013 RMK AO2 T01111123
KPYX 180015Z AUTO 11005KT 10SM CLR 12/M12 A3013 RMK AO2 T01211120
KPYX 172355Z AUTO 10004KT 10SM CLR 14/M12 A3013 RMK AO2 T01361117 10162 20129
KPYX 172335Z AUTO 10003KT 10SM CLR 15/M13 A3013 RMK AO2 T01511128
KPYX 172315Z AUTO 08006KT 10SM CLR 15/M12 A3013 RMK AO2 T01531125
KPYX 172255Z AUTO 07005KT 10SM CLR 15/M13 A3013 RMK AO2 T01541127
KPYX 172235Z AUTO 08004KT 10SM CLR 16/M13 A3013 RMK AO2 T01571127
KPYX 172215Z AUTO 06005G08KT 10SM CLR 16/M13 A3013 RMK AO2 T01571126
KPYX 172155Z AUTO 02006KT 10SM CLR 16/M13 A3013 RMK AO2 T01601126
KPYX 172135Z AUTO 01009KT 10SM CLR 16/M12 A3013 RMK AO2 T01611123
KPYX 172115Z AUTO 03006KT 10SM CLR 16/M12 A3013 RMK AO2 T01561124
KPYX 172055Z AUTO 06009G12KT 10SM CLR 16/M12 A3012 RMK AO2 T01561123
KPYX 172035Z AUTO 04011G16KT 340V060 10SM CLR 16/M12 A3012 RMK AO2 T01561120
KPYX 172015Z AUTO 01010G20KT 10SM CLR 16/M12 A3012 RMK AO2 T01571117
KPYX 171955Z AUTO 01014G19KT 10SM CLR 16/M12 A3013 RMK AO2 T01551117
KPYX 171935Z AUTO 02012G21KT 10SM CLR 15/M11 A3013 RMK AO2 T01521113
KPYX 171915Z AUTO 02012G17KT 10SM CLR 15/M10 A3013 RMK AO2 T01481104
KPYX 171855Z AUTO 02015G28KT 10SM CLR 14/M10 A3014 RMK AO2 T01421102
KPYX 171835Z AUTO 01019G24KT 10SM CLR 14/M10 A3015 RMK AO2 T01371100
KPYX 171815Z AUTO 01018G26KT 10SM CLR 13/M09 A3015 RMK AO2 T01341093
KPYX 171755Z AUTO 01020G30KT 10SM CLR 13/M09 A3015 RMK AO2 T01281095 10128 20030
KPYX 171735Z AUTO 02020G28KT 10SM CLR 12/M09 A3014 RMK AO2 T01231087
KPYX 171715Z AUTO 01022G28KT 10SM CLR 12/M08 A3014 RMK AO2 T01181084
KPYX 171655Z AUTO 01023G31KT 10SM CLR 11/M08 A3013 RMK AO2 T01121083
KPYX 171635Z AUTO 01018G29KT 10SM CLR 11/M08 A3013 RMK AO2 T01051077
KPYX 171615Z AUTO 01022G30KT 10SM CLR 10/M07 A3011 RMK AO2 T01011073
KPYX 171555Z AUTO 02020G24KT 10SM CLR 10/M07 A3009 RMK AO2 T00951069
KPYX 171535Z AUTO 02017G23KT 10SM CLR 09/M06 A3008 RMK AO2 T00871064
KPYX 171515Z AUTO 02016G20KT 10SM CLR 08/M05 A3007 RMK AO2 T00781050
KPYX 171455Z AUTO 02015G20KT 10SM CLR 06/M04 A3006 RMK AO2 T00631040
KPYX 171435Z AUTO 01015KT 10SM CLR 06/M03 A3005 RMK AO2 T00551033
KPYX 171415Z AUTO 36012G17KT 10SM CLR 05/M03 A3003 RMK AO2 T00451029
KPYX 171355Z AUTO 36014KT 10SM CLR 05/M02 A3001 RMK AO2 T00451023
KPYX 171335Z AUTO 36014KT 10SM CLR 05/M02 A2999 RMK AO2 T00481019
KPYX 171315Z AUTO 35012KT 10SM CLR 04/00 A2997 RMK AO2 T00421004
KPYX 171255Z AUTO 32010KT 10SM CLR 04/01 A2996 RMK AO2 T00350008
KPYX 171235Z AUTO 29007KT 10SM CLR 03/01 A2995 RMK AO2 T00300006
KPYX 171215Z AUTO 27008KT 10SM CLR 04/01 A2994 RMK AO2 T00390011
KPYX 171155Z AUTO 27009KT 10SM CLR 05/02 A2993 RMK AO2 T00450017 10057 20037
KPYX 171135Z AUTO 25008KT 10SM CLR 05/02 A2992 RMK AO2 T00450015